createdAt,value
2022-08-18T00:02:00.557Z,18.28
2022-08-18T00:04:36.609Z,17.63
2022-08-18T00:07:16.347Z,18.03
2022-08-18T00:09:47.697Z,17.65
2022-08-18T00:12:17.970Z,18.24
2022-08-18T00:14:47.438Z,17.60
2022-08-18T00:17:16.339Z,17.95
2022-08-18T00:19:47.373Z,17.90
2022-08-18T00:22:18.830Z,18.18
2022-08-18T00:24:53.464Z,18.33
2022-08-18T00:27:26.191Z,18.38
2022-08-18T00:29:58.463Z,18.08
2022-08-18T00:32:29.552Z,18.38
2022-08-18T00:34:57.578Z,18.32
2022-08-18T00:37:25.678Z,18.19
2022-08-18T00:39:55.294Z,18.19
2022-08-18T00:42:28.183Z,18.08
2022-08-18T00:45:01.246Z,18.09
2022-08-18T00:47:41.752Z,17.99
2022-08-18T00:50:15.853Z,18.35
2022-08-18T00:52:48.635Z,18.31
2022-08-18T00:55:19.451Z,18.30
2022-08-18T00:57:49.416Z,18.10
2022-08-18T01:00:17.436Z,18.20
2022-08-18T01:02:49.223Z,18.15
2022-08-18T01:05:22.614Z,18.04
2022-08-18T01:07:51.350Z,18.20
2022-08-18T01:10:23.138Z,18.07
2022-08-18T01:12:53.247Z,18.15
2022-08-18T01:15:29.116Z,17.71
2022-08-18T01:18:16.983Z,18.23
2022-08-18T01:21:09.138Z,18.23
2022-08-18T01:23:39.286Z,18.20
2022-08-18T01:26:06.421Z,17.65
2022-08-18T01:28:36.142Z,17.61
2022-08-18T01:31:04.741Z,18.14
2022-08-18T01:33:36.570Z,18.09
2022-08-18T01:36:16.359Z,18.01
2022-08-18T01:38:47.120Z,18.07
2022-08-18T01:41:25.867Z,17.99
2022-08-18T01:43:56.097Z,18.02
2022-08-18T01:46:24.415Z,17.93
2022-08-18T01:48:53.682Z,18.05
2022-08-18T01:51:39.880Z,17.55
2022-08-18T01:54:12.939Z,17.92
2022-08-18T01:56:42.358Z,17.89
2022-08-18T01:59:14.523Z,17.54
2022-08-18T02:04:52.313Z,17.81
2022-08-18T02:07:20.121Z,17.00
2022-08-18T02:09:51.075Z,17.27
2022-08-18T02:12:19.014Z,16.46
2022-08-18T02:14:46.781Z,17.47
2022-08-18T02:17:15.229Z,17.16
2022-08-18T02:19:45.948Z,17.52
2022-08-18T02:22:16.431Z,17.48
2022-08-18T02:24:44.512Z,17.42
2022-08-18T02:27:16.229Z,17.49
2022-08-18T02:29:44.246Z,16.72
2022-08-18T02:32:12.020Z,16.64
2022-08-18T02:34:40.888Z,17.14
2022-08-18T02:37:13.126Z,16.82
2022-08-18T02:39:42.705Z,17.21
2022-08-18T02:42:10.573Z,17.27
2022-08-18T02:44:39.660Z,17.21
2022-08-18T02:47:07.838Z,17.19
2022-08-18T02:49:36.835Z,16.45
2022-08-18T02:52:06.014Z,16.62
2022-08-18T02:54:35.219Z,16.54
2022-08-18T02:57:08.066Z,17.14
2022-08-18T02:59:37.358Z,16.41
2022-08-18T03:02:09.554Z,16.01
2022-08-18T03:04:38.082Z,16.68
2022-08-18T03:07:08.100Z,16.87
2022-08-18T03:09:36.356Z,16.94
2022-08-18T03:12:05.056Z,16.76
2022-08-18T03:14:32.723Z,16.58
2022-08-18T03:17:00.829Z,16.81
2022-08-18T03:19:30.931Z,16.75
2022-08-18T03:22:02.795Z,16.28
2022-08-18T03:24:32.917Z,16.67
2022-08-18T03:27:02.177Z,16.41
2022-08-18T03:29:32.761Z,16.65
2022-08-18T03:32:01.778Z,16.48
2022-08-18T03:34:31.627Z,16.62
2022-08-18T03:37:00.097Z,15.74
2022-08-18T03:39:28.654Z,16.68
2022-08-18T03:42:00.967Z,16.41
2022-08-18T03:44:31.942Z,16.67
2022-08-18T03:47:03.075Z,16.09
2022-08-18T03:49:33.627Z,16.33
2022-08-18T03:52:01.752Z,15.74
2022-08-18T03:54:32.270Z,16.42
2022-08-18T03:57:00.445Z,16.39
2022-08-18T03:59:31.778Z,16.38
2022-08-18T04:01:59.793Z,15.87
2022-08-18T04:04:29.187Z,16.22
2022-08-18T04:07:01.383Z,16.47
2022-08-18T04:09:31.665Z,15.99
2022-08-18T04:12:04.283Z,16.31
2022-08-18T04:14:34.626Z,16.14
2022-08-18T04:17:02.387Z,15.62
2022-08-18T04:19:31.005Z,15.80
2022-08-18T04:22:00.241Z,16.35
2022-08-18T04:24:30.938Z,16.38
2022-08-18T04:27:01.577Z,16.26
2022-08-18T04:29:29.644Z,16.29
2022-08-18T04:31:57.709Z,15.88
2022-08-18T04:34:27.387Z,16.09
2022-08-18T04:36:55.085Z,16.09
2022-08-18T04:39:25.709Z,16.10
2022-08-18T04:41:54.026Z,16.08
2022-08-18T04:44:22.311Z,16.01
2022-08-18T04:46:54.574Z,16.16
2022-08-18T04:49:25.992Z,16.26
2022-08-18T04:52:34.361Z,16.24
2022-08-18T04:55:02.995Z,16.10
2022-08-18T04:57:34.005Z,16.16
2022-08-18T05:00:06.038Z,16.15
2022-08-18T05:02:33.866Z,16.25
2022-08-18T05:05:03.108Z,16.25
2022-08-18T05:07:31.355Z,16.36
2022-08-18T05:09:59.241Z,16.35
2022-08-18T05:12:29.096Z,16.35
2022-08-18T05:14:57.867Z,16.57
2022-08-18T05:17:29.959Z,16.62
2022-08-18T05:19:58.743Z,16.72
2022-08-18T05:22:30.566Z,16.76
2022-08-18T05:25:00.007Z,16.85
2022-08-18T05:27:35.161Z,16.84
2022-08-18T05:30:04.032Z,16.84
2022-08-18T05:32:47.877Z,16.94
2022-08-18T05:35:23.352Z,17.02
2022-08-18T05:38:19.199Z,17.11
2022-08-18T05:40:47.710Z,17.24
2022-08-18T05:43:18.414Z,17.34
2022-08-18T05:45:46.282Z,17.41
2022-08-18T05:48:15.143Z,17.49
2022-08-18T05:50:43.270Z,17.55
2022-08-18T05:53:15.557Z,17.68
2022-08-18T05:56:09.389Z,17.67
2022-08-18T05:58:43.485Z,17.63
2022-08-18T06:01:17.181Z,17.56
2022-08-18T06:03:50.194Z,17.55
2022-08-18T06:06:21.272Z,17.56
2022-08-18T06:08:58.335Z,17.55
2022-08-18T06:11:26.762Z,17.47
2022-08-18T06:13:59.634Z,17.63
2022-08-18T06:16:50.578Z,17.61
2022-08-18T06:19:36.061Z,17.67
2022-08-18T06:22:14.824Z,17.51
2022-08-18T06:24:52.224Z,17.79
2022-08-18T06:27:31.126Z,17.75
2022-08-18T06:30:08.417Z,17.42
2022-08-18T06:33:02.633Z,17.65
2022-08-18T06:35:36.386Z,17.74
2022-08-18T06:38:40.197Z,17.74
2022-08-18T06:41:42.379Z,17.64
2022-08-18T06:44:10.922Z,17.79
2022-08-18T06:46:46.019Z,17.78
2022-08-18T06:49:31.945Z,17.95
2022-08-18T06:51:59.753Z,18.00
2022-08-18T06:54:29.964Z,17.92
2022-08-18T06:56:59.780Z,17.96
2022-08-18T06:59:30.682Z,17.87
2022-08-18T07:02:12.578Z,17.89
2022-08-18T07:04:43.262Z,18.03
2022-08-18T07:07:40.335Z,18.12
2022-08-18T07:10:35.124Z,18.25
2022-08-18T07:13:17.081Z,18.07
2022-08-18T07:15:45.406Z,17.79
2022-08-18T07:18:16.059Z,18.25
2022-08-18T07:20:45.567Z,18.30
2022-08-18T07:23:25.321Z,18.34
2022-08-18T07:26:15.657Z,18.47
2022-08-18T07:28:46.193Z,18.46
2022-08-18T07:31:20.902Z,18.52
2022-08-18T07:33:56.148Z,18.57
2022-08-18T07:36:28.744Z,18.62
2022-08-18T07:39:04.047Z,18.65
2022-08-18T07:41:36.656Z,18.60
2022-08-18T07:44:18.343Z,19.09
2022-08-18T07:46:59.592Z,19.60
2022-08-18T07:49:33.396Z,19.79
2022-08-18T07:52:06.698Z,19.72
2022-08-18T07:54:57.441Z,19.68
2022-08-18T07:57:42.082Z,19.83
2022-08-18T08:00:26.793Z,20.32
2022-08-18T08:03:17.950Z,20.19
2022-08-18T08:05:55.634Z,20.26
2022-08-18T08:08:30.821Z,20.53
2022-08-18T08:11:10.889Z,20.55
2022-08-18T08:13:55.722Z,20.45
2022-08-18T08:16:38.387Z,20.34
2022-08-18T08:19:42.375Z,20.16
2022-08-18T08:22:18.050Z,20.00
2022-08-18T08:24:56.992Z,19.93
2022-08-18T08:27:35.349Z,19.85
2022-08-18T08:30:08.159Z,19.98
2022-08-18T08:32:37.890Z,19.77
2022-08-18T08:35:47.052Z,19.79
2022-08-18T08:38:39.467Z,19.86
2022-08-18T08:41:03.493Z,19.85
2022-08-18T08:43:35.463Z,19.84
2022-08-18T08:46:11.002Z,19.91
2022-08-18T08:48:44.035Z,20.05
2022-08-18T08:51:30.102Z,20.06
2022-08-18T08:54:05.082Z,19.95
2022-08-18T08:56:44.017Z,19.90
2022-08-18T08:59:14.350Z,19.90
2022-08-18T09:01:49.413Z,19.85
2022-08-18T09:04:32.500Z,20.18
2022-08-18T09:07:14.999Z,20.00
2022-08-18T09:09:58.869Z,19.97
2022-08-18T09:12:42.578Z,20.05
2022-08-18T09:15:31.942Z,19.99
2022-08-18T09:18:19.274Z,20.07
2022-08-18T09:20:56.360Z,20.13
2022-08-18T09:23:27.280Z,20.32
2022-08-18T09:26:00.255Z,20.30
2022-08-18T09:28:56.215Z,20.47
2022-08-18T09:31:25.495Z,20.41
2022-08-18T09:34:35.029Z,20.71
2022-08-18T09:37:13.297Z,20.67
2022-08-18T09:40:11.373Z,20.59
2022-08-18T09:42:50.623Z,20.59
2022-08-18T09:45:57.955Z,20.72
2022-08-18T09:48:33.083Z,20.78
2022-08-18T09:51:24.657Z,20.81
2022-08-18T09:54:20.757Z,20.85
2022-08-18T10:00:28.973Z,21.00
2022-08-18T10:03:25.661Z,21.08
2022-08-18T10:06:20.727Z,21.03
2022-08-18T10:12:27.297Z,21.43
2022-08-18T10:15:32.977Z,21.49
2022-08-18T10:18:35.256Z,21.60
2022-08-18T10:21:12.600Z,21.44
2022-08-18T10:24:14.710Z,21.69
2022-08-18T10:26:59.879Z,22.03
2022-08-18T10:29:57.158Z,21.88
2022-08-18T10:32:37.767Z,21.86
2022-08-18T10:35:32.637Z,21.85
2022-08-18T10:38:03.830Z,21.89
2022-08-18T10:40:33.037Z,21.82
2022-08-18T10:43:45.279Z,21.58
2022-08-18T10:48:59.574Z,21.90
2022-08-18T10:51:59.299Z,21.86
2022-08-18T10:54:51.560Z,22.04
2022-08-18T10:57:31.722Z,22.00
2022-08-18T11:00:06.778Z,21.89
2022-08-18T11:03:13.953Z,22.32
2022-08-18T11:05:43.301Z,22.42
2022-08-18T11:08:17.336Z,22.60
2022-08-18T11:11:27.583Z,22.33
2022-08-18T11:13:53.695Z,22.75
2022-08-18T11:16:33.884Z,22.88
2022-08-18T11:19:09.587Z,22.64
2022-08-18T11:21:43.526Z,23.31
2022-08-18T11:24:15.875Z,23.21
2022-08-18T11:26:51.146Z,23.07
2022-08-18T11:29:32.555Z,23.30
2022-08-18T11:35:12.288Z,23.38
2022-08-18T11:37:48.542Z,23.45
2022-08-18T11:49:17.938Z,23.78
2022-08-18T11:52:03.179Z,23.85
2022-08-18T11:54:40.142Z,24.13
2022-08-18T12:01:01.399Z,24.34
2022-08-18T12:03:37.941Z,24.44
2022-08-18T12:06:19.489Z,24.40
2022-08-18T12:09:06.986Z,24.31
2022-08-18T12:11:41.182Z,24.18
2022-08-18T12:14:32.336Z,24.32
2022-08-18T12:17:05.006Z,24.38
2022-08-18T12:19:34.953Z,24.09
2022-08-18T12:22:13.791Z,24.27
2022-08-18T12:24:41.491Z,24.13
2022-08-18T12:27:21.494Z,23.96
2022-08-18T12:29:50.422Z,24.02
2022-08-18T12:32:46.674Z,24.04
2022-08-18T12:35:11.222Z,23.89
2022-08-18T12:37:58.810Z,24.03
2022-08-18T12:40:28.373Z,23.97
2022-08-18T12:42:56.626Z,23.61
2022-08-18T12:45:27.210Z,23.82
2022-08-18T12:47:56.851Z,23.93
2022-08-18T12:50:31.392Z,23.84
2022-08-18T12:53:01.875Z,23.76
2022-08-18T12:58:28.372Z,23.43
2022-08-18T13:00:56.745Z,23.79
2022-08-18T13:03:27.406Z,23.78
2022-08-18T13:05:57.333Z,23.47
2022-08-18T13:08:33.436Z,23.93
2022-08-18T13:11:13.257Z,24.05
2022-08-18T13:13:44.418Z,23.97
2022-08-18T13:16:16.481Z,23.64
2022-08-18T13:18:59.935Z,23.88
2022-08-18T13:21:27.767Z,23.91
2022-08-18T13:24:07.303Z,23.39
2022-08-18T13:26:39.138Z,23.87
2022-08-18T13:29:10.006Z,23.35
2022-08-18T13:31:39.269Z,23.77
2022-08-18T13:34:15.201Z,23.90
2022-08-18T13:36:48.075Z,23.77
2022-08-18T13:39:19.153Z,23.78
2022-08-18T13:41:48.948Z,23.78
2022-08-18T13:44:18.942Z,23.63
2022-08-18T13:46:48.638Z,23.73
2022-08-18T13:49:23.565Z,23.76
2022-08-18T13:52:00.505Z,23.21
2022-08-18T13:54:35.203Z,23.81
2022-08-18T13:57:04.346Z,23.68
2022-08-18T13:59:34.053Z,23.59
2022-08-18T14:02:03.660Z,23.62
2022-08-18T14:04:33.508Z,23.76
2022-08-18T14:07:08.980Z,23.82
2022-08-18T14:09:38.426Z,23.35
2022-08-18T14:12:21.765Z,23.63
2022-08-18T14:14:52.569Z,23.81
2022-08-18T14:17:22.534Z,23.85
2022-08-18T14:20:15.145Z,23.45
2022-08-18T14:23:09.082Z,23.85
2022-08-18T14:26:44.400Z,23.75
2022-08-18T14:29:16.502Z,23.47
2022-08-18T14:31:45.125Z,23.74
2022-08-18T14:34:12.866Z,23.09
2022-08-18T14:36:50.681Z,23.76
2022-08-18T14:39:20.692Z,23.75
2022-08-18T14:41:49.615Z,23.81
2022-08-18T14:44:25.493Z,23.73
2022-08-18T14:46:59.714Z,23.74
2022-08-18T14:49:30.255Z,23.60
2022-08-18T14:52:00.758Z,23.73
2022-08-18T14:54:30.091Z,23.74
2022-08-18T14:57:01.158Z,23.31
2022-08-18T14:59:30.771Z,23.84
2022-08-18T15:02:07.629Z,23.77
2022-08-18T15:04:53.231Z,23.74
2022-08-18T15:07:27.485Z,23.58
2022-08-18T15:10:15.188Z,23.76
2022-08-18T15:12:43.958Z,23.72
2022-08-18T15:15:18.106Z,23.58
2022-08-18T15:17:50.071Z,23.74
2022-08-18T15:20:24.028Z,23.70
2022-08-18T15:23:22.862Z,23.63
2022-08-18T15:25:56.382Z,23.57
2022-08-18T15:28:27.090Z,23.56
2022-08-18T15:33:42.706Z,23.53
2022-08-18T15:36:16.116Z,23.49
2022-08-18T15:38:45.405Z,23.47
2022-08-18T15:41:29.319Z,23.45
2022-08-18T15:44:00.760Z,23.21
2022-08-18T15:46:28.504Z,23.43
2022-08-18T15:48:57.202Z,23.14
2022-08-18T15:51:27.482Z,23.05
2022-08-18T15:54:11.350Z,23.29
2022-08-18T15:57:23.701Z,23.32
2022-08-18T16:00:02.080Z,23.29
2022-08-18T16:02:40.186Z,22.69
2022-08-18T16:05:10.317Z,23.13
2022-08-18T16:07:46.538Z,23.12
2022-08-18T16:10:16.737Z,23.05
2022-08-18T16:12:45.719Z,22.27
2022-08-18T16:15:15.586Z,22.81
2022-08-18T16:17:49.135Z,22.41
2022-08-18T16:20:18.682Z,22.65
2022-08-18T16:22:47.140Z,22.21
2022-08-18T16:25:18.149Z,22.21
2022-08-18T16:27:47.807Z,22.60
2022-08-18T16:30:18.910Z,22.73
2022-08-18T16:32:47.346Z,22.72
2022-08-18T16:35:22.377Z,22.73
2022-08-18T16:37:50.936Z,22.75
2022-08-18T16:40:21.047Z,22.88
2022-08-18T16:45:22.817Z,22.78
2022-08-18T16:47:50.725Z,22.63
2022-08-18T16:50:19.310Z,22.40
2022-08-18T16:52:47.217Z,22.57
2022-08-18T16:55:15.021Z,22.43
2022-08-18T16:58:03.364Z,22.46
2022-08-18T17:00:54.538Z,22.30
2022-08-18T17:03:40.666Z,22.23
2022-08-18T17:06:11.787Z,22.28
2022-08-18T17:08:41.198Z,22.24
2022-08-18T17:11:12.579Z,22.04
2022-08-18T17:13:43.314Z,22.15
2022-08-18T17:16:12.310Z,22.08
2022-08-18T17:18:40.836Z,22.14
2022-08-18T17:21:11.212Z,22.20
2022-08-18T17:23:40.468Z,22.06
2022-08-18T17:26:10.571Z,22.18
2022-08-18T17:28:50.558Z,21.78
2022-08-18T17:31:22.511Z,22.21
2022-08-18T17:33:50.172Z,22.25
2022-08-18T17:36:24.073Z,21.39
2022-08-18T17:38:58.290Z,21.27
2022-08-18T17:41:26.849Z,21.08
2022-08-18T17:44:00.786Z,20.72
2022-08-18T17:46:34.591Z,20.04
2022-08-18T17:49:08.054Z,20.54
2022-08-18T17:51:43.473Z,20.26
2022-08-18T17:54:18.179Z,20.24
2022-08-18T17:56:54.727Z,19.85
2022-08-18T17:59:45.354Z,19.80
2022-08-18T18:02:29.672Z,19.71
2022-08-18T18:04:59.428Z,19.64
2022-08-18T18:07:29.423Z,19.63
2022-08-18T18:10:03.000Z,19.29
2022-08-18T18:12:33.417Z,18.54
2022-08-18T18:15:05.937Z,18.02
2022-08-18T18:17:37.664Z,18.36
2022-08-18T18:20:16.910Z,18.87
2022-08-18T18:22:46.026Z,18.70
2022-08-18T18:25:30.150Z,18.53
2022-08-18T18:28:02.730Z,18.66
2022-08-18T18:30:32.824Z,18.60
2022-08-18T18:33:03.875Z,18.51
2022-08-18T18:35:34.399Z,17.52
2022-08-18T18:38:04.594Z,18.15
2022-08-18T18:40:35.794Z,18.54
2022-08-18T18:43:25.251Z,18.48
2022-08-18T18:46:23.366Z,18.38
2022-08-18T18:49:02.603Z,18.39
2022-08-18T18:51:40.126Z,18.45
2022-08-18T18:54:17.606Z,18.48
2022-08-18T18:56:50.551Z,18.49
2022-08-18T18:59:27.260Z,18.22
2022-08-18T19:02:34.090Z,18.19
2022-08-18T19:05:11.933Z,18.06
2022-08-18T19:07:53.192Z,17.95
2022-08-18T19:10:29.333Z,18.47
2022-08-18T19:13:02.000Z,18.31
2022-08-18T19:15:33.356Z,18.33
2022-08-18T19:18:21.605Z,17.44
2022-08-18T19:21:49.319Z,18.28
2022-08-18T19:23:46.472Z,17.99
2022-08-18T19:26:46.918Z,18.22
2022-08-18T19:29:18.994Z,18.33
2022-08-18T19:31:50.508Z,17.90
2022-08-18T19:34:30.131Z,17.60
2022-08-18T19:37:07.735Z,17.84
2022-08-18T19:39:43.726Z,18.22
2022-08-18T19:42:17.551Z,17.93
2022-08-18T19:45:13.003Z,18.10
2022-08-18T19:47:47.709Z,18.31
2022-08-18T19:50:30.137Z,17.90
2022-08-18T19:53:13.646Z,18.26
2022-08-18T19:56:10.235Z,17.71
2022-08-18T19:59:18.568Z,18.23
2022-08-18T20:01:58.671Z,17.95
2022-08-18T20:04:44.541Z,18.16
2022-08-18T20:07:46.962Z,17.95
2022-08-18T20:10:45.230Z,18.03
2022-08-18T20:13:32.592Z,18.03
2022-08-18T20:16:13.937Z,17.88
2022-08-18T20:18:46.292Z,17.83
2022-08-18T20:21:41.189Z,17.82
2022-08-18T20:24:36.081Z,17.50
2022-08-18T20:27:24.674Z,17.98
2022-08-18T20:30:27.286Z,18.09
2022-08-18T20:33:18.965Z,18.06
2022-08-18T20:36:00.284Z,17.85
2022-08-18T20:38:34.941Z,17.98
2022-08-18T20:41:38.993Z,17.89
2022-08-18T20:44:36.433Z,17.83
2022-08-18T20:47:19.049Z,17.84
2022-08-18T20:49:58.000Z,17.84
2022-08-18T20:52:37.803Z,17.61
2022-08-18T20:55:17.840Z,17.78
2022-08-18T20:57:46.389Z,17.73
2022-08-18T21:00:23.901Z,17.87
2022-08-18T21:02:57.527Z,17.83
2022-08-18T21:05:28.596Z,17.79
2022-08-18T21:08:06.150Z,17.82
2022-08-18T21:10:35.255Z,17.77
2022-08-18T21:13:05.391Z,17.69
2022-08-18T21:15:38.735Z,17.10
2022-08-18T21:18:15.129Z,17.84
2022-08-18T21:20:47.659Z,17.84
2022-08-18T21:23:23.607Z,17.81
2022-08-18T21:25:53.795Z,17.84
2022-08-18T21:28:22.771Z,17.26
2022-08-18T21:31:29.168Z,17.80
2022-08-18T21:33:50.714Z,17.93
2022-08-18T21:36:20.145Z,17.99
2022-08-18T21:39:06.187Z,18.03
2022-08-18T21:41:40.280Z,17.87
2022-08-18T21:44:09.854Z,17.95
2022-08-18T21:46:40.229Z,17.96
2022-08-18T21:49:07.894Z,17.73
2022-08-18T21:51:44.781Z,17.87
2022-08-18T21:54:17.441Z,17.84
2022-08-18T21:56:45.568Z,17.74
2022-08-18T21:59:15.895Z,17.87
2022-08-18T22:01:54.518Z,17.87
2022-08-18T22:04:28.835Z,17.71
2022-08-18T22:07:00.283Z,17.85
2022-08-18T22:09:47.791Z,17.71
2022-08-18T22:12:45.129Z,17.70
2022-08-18T22:15:17.645Z,17.74
2022-08-18T22:17:55.321Z,17.75
2022-08-18T22:20:42.029Z,17.81
2022-08-18T22:23:44.347Z,17.63
2022-08-18T22:26:23.059Z,17.66
2022-08-18T22:29:01.023Z,17.50
2022-08-18T22:31:33.405Z,17.75
2022-08-18T22:34:05.066Z,17.75
2022-08-18T22:36:36.975Z,17.67
2022-08-18T22:39:08.530Z,17.74
2022-08-18T22:41:36.633Z,17.24
2022-08-18T22:44:06.440Z,17.74
2022-08-18T22:46:35.100Z,17.61
2022-08-18T22:49:04.703Z,17.65
2022-08-18T22:51:36.228Z,16.89
2022-08-18T22:54:05.224Z,17.44
2022-08-18T22:56:34.358Z,17.61
2022-08-18T22:59:12.169Z,17.61
2022-08-18T23:01:46.113Z,17.58
2022-08-18T23:04:16.861Z,17.52
2022-08-18T23:06:51.527Z,17.38
2022-08-18T23:09:21.499Z,17.38
2022-08-18T23:11:49.617Z,17.33
2022-08-18T23:14:17.369Z,17.43
2022-08-18T23:16:47.007Z,17.23
2022-08-18T23:19:18.090Z,17.42
2022-08-18T23:21:46.718Z,17.39
2022-08-18T23:24:16.084Z,16.85
2022-08-18T23:26:43.889Z,17.27
2022-08-18T23:29:12.753Z,17.23
2022-08-18T23:31:42.783Z,17.13
2022-08-18T23:34:13.197Z,17.32
2022-08-18T23:36:45.630Z,16.73
2022-08-18T23:39:14.276Z,16.67
2022-08-18T23:41:42.746Z,17.25
2022-08-18T23:44:10.615Z,17.05
2022-08-18T23:46:39.442Z,17.30
2022-08-18T23:49:10.811Z,17.27
2022-08-18T23:51:44.053Z,17.29
2022-08-18T23:54:15.335Z,17.37
2022-08-18T23:56:43.037Z,16.72
2022-08-18T23:59:11.759Z,17.39
